createdAt,value
2023-02-22T00:03:02.364Z,98297.06
2023-02-22T00:06:09.910Z,98300.25
2023-02-22T00:09:20.791Z,98296.31
2023-02-22T00:12:29.433Z,98292.59
2023-02-22T00:15:36.666Z,98290.19
2023-02-22T00:18:43.576Z,98297.56
2023-02-22T00:21:55.966Z,98293.16
2023-02-22T00:25:01.850Z,98286.44
2023-02-22T00:28:11.239Z,98299.88
2023-02-22T00:31:17.806Z,98296.59
2023-02-22T00:34:26.738Z,98288.53
2023-02-22T00:37:32.871Z,98298.03
2023-02-22T00:40:40.366Z,98300.13
2023-02-22T00:43:49.056Z,98304.44
2023-02-22T00:46:55.821Z,98301.19
2023-02-22T00:50:01.784Z,98304.63
2023-02-22T00:53:10.597Z,98291.56
2023-02-22T00:56:16.657Z,98304.81
2023-02-22T00:59:26.125Z,98298.59
2023-02-22T01:02:31.975Z,98300.22
2023-02-22T01:05:39.198Z,98305.75
2023-02-22T01:08:48.217Z,98305.25
2023-02-22T01:11:58.253Z,98297.50
2023-02-22T01:15:10.528Z,98295.91
2023-02-22T01:18:17.466Z,98300.09
2023-02-22T01:21:23.653Z,98305.94
2023-02-22T01:24:30.541Z,98292.28
2023-02-22T01:27:36.664Z,98309.16
2023-02-22T01:30:46.174Z,98301.47
2023-02-22T01:33:51.929Z,98293.63
2023-02-22T01:36:58.778Z,98302.31
2023-02-22T01:40:05.016Z,98290.88
2023-02-22T01:43:26.572Z,98300.81
2023-02-22T01:46:35.007Z,98298.66
2023-02-22T01:49:50.979Z,98296.19
2023-02-22T01:52:57.030Z,98303.88
2023-02-22T01:56:05.425Z,98300.75
2023-02-22T01:59:15.785Z,98305.59
2023-02-22T02:02:26.005Z,98306.03
2023-02-22T02:05:36.083Z,98302.19
2023-02-22T02:08:58.907Z,98295.44
2023-02-22T02:12:08.082Z,98291.50
2023-02-22T02:15:29.091Z,98301.19
2023-02-22T02:18:38.944Z,98300.53
2023-02-22T02:22:16.154Z,98290.09
2023-02-22T02:26:07.086Z,98296.06
2023-02-22T02:30:07.318Z,98305.00
2023-02-22T02:33:30.368Z,98302.78
2023-02-22T02:37:00.149Z,98301.38
2023-02-22T02:40:23.886Z,98300.53
2023-02-22T02:43:42.294Z,98300.97
2023-02-22T02:46:59.399Z,98304.78
2023-02-22T02:50:16.460Z,98305.97
2023-02-22T02:53:32.681Z,98299.13
2023-02-22T02:56:38.767Z,98301.72
2023-02-22T02:59:46.526Z,98302.25
2023-02-22T03:03:13.944Z,98309.78
2023-02-22T03:07:06.612Z,98307.16
2023-02-22T03:10:41.505Z,98304.69
2023-02-22T03:14:04.602Z,98311.44
2023-02-22T03:17:30.385Z,98307.16
2023-02-22T03:20:51.224Z,98314.84
2023-02-22T03:24:12.840Z,98317.31
2023-02-22T03:27:33.320Z,98303.06
2023-02-22T03:30:50.226Z,98286.69
2023-02-22T03:34:08.946Z,98315.69
2023-02-22T03:37:23.384Z,98326.91
2023-02-22T03:40:39.843Z,98331.19
2023-02-22T03:43:54.702Z,98330.25
2023-02-22T03:47:11.952Z,98325.31
2023-02-22T03:50:26.452Z,98335.06
2023-02-22T03:53:38.287Z,98329.75
2023-02-22T03:56:57.420Z,98328.50
2023-02-22T04:00:05.894Z,98333.56
2023-02-22T04:03:19.000Z,98340.59
2023-02-22T04:06:25.880Z,98336.19
2023-02-22T04:09:32.878Z,98328.34
2023-02-22T04:12:42.604Z,98327.69
2023-02-22T04:15:48.531Z,98334.38
2023-02-22T04:18:55.368Z,98334.66
2023-02-22T04:22:02.319Z,98325.56
2023-02-22T04:25:13.534Z,98332.00
2023-02-22T04:28:22.487Z,98329.09
2023-02-22T04:31:47.722Z,98329.31
2023-02-22T04:34:57.385Z,98323.00
2023-02-22T04:38:04.591Z,98324.53
2023-02-22T04:41:11.493Z,98326.47
2023-02-22T04:44:20.824Z,98326.63
2023-02-22T04:47:26.831Z,98332.00
2023-02-22T04:50:33.898Z,98331.38
2023-02-22T04:53:41.661Z,98330.81
2023-02-22T04:56:48.479Z,98323.81
2023-02-22T04:59:57.791Z,98331.94
2023-02-22T05:03:05.198Z,98325.38
2023-02-22T05:06:12.559Z,98320.56
2023-02-22T05:09:19.242Z,98331.53
2023-02-22T05:12:25.213Z,98303.34
2023-02-22T05:15:34.735Z,98325.28
2023-02-22T05:18:40.610Z,98328.28
2023-02-22T05:21:47.105Z,98332.59
2023-02-22T05:24:53.083Z,98329.59
2023-02-22T05:28:04.057Z,98328.66
2023-02-22T05:31:13.843Z,98333.09
2023-02-22T05:34:24.114Z,98340.97
2023-02-22T05:37:29.902Z,98328.88
2023-02-22T05:40:37.242Z,98340.97
2023-02-22T05:43:44.490Z,98343.69
2023-02-22T05:46:53.940Z,98345.75
2023-02-22T05:49:59.782Z,98345.63
2023-02-22T05:53:06.390Z,98340.16
2023-02-22T05:56:12.721Z,98350.28
2023-02-22T05:59:19.278Z,98351.78
2023-02-22T06:02:27.814Z,98349.84
2023-02-22T06:05:35.236Z,98354.94
2023-02-22T06:08:41.027Z,98362.63
2023-02-22T06:11:47.676Z,98365.09
2023-02-22T06:14:53.555Z,98361.63
2023-02-22T06:18:04.149Z,98367.53
2023-02-22T06:21:12.100Z,98370.28
2023-02-22T06:24:18.812Z,98392.63
2023-02-22T06:27:24.590Z,98375.34
2023-02-22T06:30:32.271Z,98379.88
2023-02-22T06:33:40.708Z,98379.44
2023-02-22T06:36:49.901Z,98394.25
2023-02-22T06:39:55.721Z,98397.00
2023-02-22T06:43:02.715Z,98410.41
2023-02-22T06:46:12.851Z,98411.94
2023-02-22T06:49:23.245Z,98413.72
2023-02-22T06:52:29.153Z,98418.78
2023-02-22T06:55:37.999Z,98415.34
2023-02-22T06:58:43.817Z,98414.81
2023-02-22T07:01:50.368Z,98424.56
2023-02-22T07:04:58.757Z,98418.66
2023-02-22T07:08:08.769Z,98413.00
2023-02-22T07:11:14.899Z,98424.13
2023-02-22T07:14:22.769Z,98421.25
2023-02-22T07:17:28.653Z,98420.94
2023-02-22T07:20:38.178Z,98418.03
2023-02-22T07:23:44.024Z,98426.91
2023-02-22T07:26:50.631Z,98426.63
2023-02-22T07:29:56.455Z,98426.47
2023-02-22T07:33:06.323Z,98425.34
2023-02-22T07:36:18.007Z,98419.56
2023-02-22T07:39:24.532Z,98422.28
2023-02-22T07:42:30.372Z,98424.34
2023-02-22T07:45:39.128Z,98427.28
2023-02-22T07:48:46.275Z,98414.59
2023-02-22T07:51:55.473Z,98430.13
2023-02-22T07:55:01.561Z,98421.97
2023-02-22T07:58:12.198Z,98421.91
2023-02-22T08:01:18.491Z,98420.31
2023-02-22T08:04:25.219Z,98421.06
2023-02-22T08:07:33.530Z,98423.66
2023-02-22T08:10:40.151Z,98422.72
2023-02-22T08:13:45.942Z,98421.13
2023-02-22T08:16:52.576Z,98417.16
2023-02-22T08:19:58.715Z,98422.50
2023-02-22T08:23:09.226Z,98429.31
2023-02-22T08:26:18.718Z,98426.53
2023-02-22T08:29:33.474Z,98427.50
2023-02-22T08:32:39.484Z,98420.94
2023-02-22T08:35:46.427Z,98426.38
2023-02-22T08:38:55.856Z,98433.88
2023-02-22T08:42:02.466Z,98434.81
2023-02-22T08:45:10.038Z,98429.25
2023-02-22T08:48:17.254Z,98434.47
2023-02-22T08:51:23.741Z,98432.16
2023-02-22T08:54:32.890Z,98431.91
2023-02-22T08:57:38.688Z,98436.41
2023-02-22T09:00:45.884Z,98433.97
2023-02-22T09:03:52.477Z,98433.22
2023-02-22T09:06:59.158Z,98446.91
2023-02-22T09:10:08.643Z,98440.44
2023-02-22T09:13:16.009Z,98440.88
2023-02-22T09:16:22.254Z,98433.56
2023-02-22T09:19:28.880Z,98438.03
2023-02-22T09:22:34.638Z,98438.72
2023-02-22T09:25:44.082Z,98441.03
2023-02-22T09:28:50.068Z,98452.84
2023-02-22T09:31:59.951Z,98437.25
2023-02-22T09:35:08.783Z,98447.13
2023-02-22T09:38:22.971Z,98452.06
2023-02-22T09:41:46.367Z,98438.94
2023-02-22T09:45:04.273Z,98439.94
2023-02-22T09:48:21.759Z,98436.66
2023-02-22T09:51:41.529Z,98431.41
2023-02-22T09:54:55.590Z,98433.03
2023-02-22T09:58:22.550Z,98432.06
2023-02-22T10:01:36.728Z,98434.47
2023-02-22T10:04:52.870Z,98435.91
2023-02-22T10:08:06.162Z,98427.84
2023-02-22T10:11:39.205Z,98429.09
2023-02-22T10:15:26.928Z,98430.03
2023-02-22T10:19:15.022Z,98425.53
2023-02-22T10:22:47.909Z,98428.97
2023-02-22T10:26:17.131Z,98422.25
2023-02-22T10:29:35.716Z,98417.19
2023-02-22T10:32:50.529Z,98413.81
2023-02-22T10:35:59.172Z,98407.88
2023-02-22T10:39:27.213Z,98407.56
2023-02-22T10:42:33.422Z,98403.38
2023-02-22T10:45:41.046Z,98409.59
2023-02-22T10:48:57.547Z,98403.47
2023-02-22T10:52:09.399Z,98402.38
2023-02-22T10:55:19.364Z,98401.44
2023-02-22T10:58:26.193Z,98395.41
2023-02-22T11:01:42.469Z,98403.97
2023-02-22T11:04:55.925Z,98405.41
2023-02-22T11:08:28.260Z,98402.47
2023-02-22T11:11:35.991Z,98397.56
2023-02-22T11:14:43.270Z,98398.41
2023-02-22T11:17:55.335Z,98392.59
2023-02-22T11:21:18.794Z,98379.31
2023-02-22T11:24:43.668Z,98389.56
2023-02-22T11:28:00.163Z,98385.00
2023-02-22T11:31:20.304Z,98384.44
2023-02-22T11:34:35.149Z,98382.53
2023-02-22T11:37:44.701Z,98377.56
2023-02-22T11:41:08.187Z,98379.72
2023-02-22T11:44:27.866Z,98383.84
2023-02-22T11:47:33.832Z,98390.47
2023-02-22T11:51:05.582Z,98381.47
2023-02-22T11:54:57.229Z,98375.94
2023-02-22T11:58:29.755Z,98377.22
2023-02-22T12:01:55.323Z,98376.41
2023-02-22T12:05:26.589Z,98379.94
2023-02-22T12:08:55.672Z,98381.38
2023-02-22T12:12:22.697Z,98374.75
2023-02-22T12:15:42.953Z,98371.66
2023-02-22T12:19:22.520Z,98370.63
2023-02-22T12:22:38.203Z,98368.94
2023-02-22T12:26:00.543Z,98369.28
2023-02-22T12:29:20.788Z,98359.13
2023-02-22T12:32:41.873Z,98359.41
2023-02-22T12:35:58.353Z,98369.59
2023-02-22T12:39:51.771Z,98365.50
2023-02-22T12:43:16.851Z,98363.22
2023-02-22T12:46:37.234Z,98362.22
2023-02-22T12:49:54.962Z,98363.94
2023-02-22T12:53:16.002Z,98355.28
2023-02-22T12:56:34.608Z,98355.00
2023-02-22T12:59:52.496Z,98357.28
2023-02-22T13:03:20.824Z,98352.22
2023-02-22T13:07:00.719Z,98349.41
2023-02-22T13:10:36.492Z,98351.78
2023-02-22T13:14:02.227Z,98350.66
2023-02-22T13:17:28.234Z,98351.59
2023-02-22T13:20:48.648Z,98346.47
2023-02-22T13:24:06.456Z,98340.03
2023-02-22T13:27:26.095Z,98345.41
2023-02-22T13:30:45.626Z,98344.84
2023-02-22T13:34:24.930Z,98354.13
2023-02-22T13:38:18.201Z,98343.34
2023-02-22T13:41:59.678Z,98341.09
2023-02-22T13:46:01.511Z,98338.09
2023-02-22T13:49:50.662Z,98342.06
2023-02-22T13:53:02.780Z,98332.91
2023-02-22T13:56:12.501Z,98339.19
2023-02-22T13:59:35.760Z,98343.91
2023-02-22T14:03:06.934Z,98339.53
2023-02-22T14:06:46.297Z,98349.72
2023-02-22T14:09:56.306Z,98349.41
2023-02-22T14:13:11.012Z,98332.59
2023-02-22T14:16:28.116Z,98344.78
2023-02-22T14:19:34.159Z,98343.09
2023-02-22T14:22:40.828Z,98341.34
2023-02-22T14:25:47.869Z,98346.44
2023-02-22T14:29:02.884Z,98341.91
2023-02-22T14:32:15.409Z,98342.59
2023-02-22T14:35:31.537Z,98345.75
2023-02-22T14:38:49.917Z,98347.28
2023-02-22T14:42:09.066Z,98345.16
2023-02-22T14:45:30.131Z,98348.22
2023-02-22T14:48:43.255Z,98348.41
2023-02-22T14:52:03.922Z,98355.47
2023-02-22T14:55:24.440Z,98351.03
2023-02-22T14:58:42.855Z,98354.81
2023-02-22T15:02:09.628Z,98354.94
2023-02-22T15:05:22.704Z,98357.63
2023-02-22T15:08:29.416Z,98352.34
2023-02-22T15:11:36.254Z,98355.16
2023-02-22T15:14:47.798Z,98343.69
2023-02-22T15:18:01.496Z,98348.44
2023-02-22T15:21:16.593Z,98352.53
2023-02-22T15:24:28.557Z,98348.59
2023-02-22T15:27:37.485Z,98355.03
2023-02-22T15:30:43.439Z,98348.94
2023-02-22T15:33:53.168Z,98357.78
2023-02-22T15:37:08.034Z,98352.84
2023-02-22T15:40:21.041Z,98354.84
2023-02-22T15:43:29.126Z,98352.13
2023-02-22T15:46:37.551Z,98352.22
2023-02-22T15:49:46.117Z,98351.59
2023-02-22T15:53:00.831Z,98351.19
2023-02-22T15:56:15.123Z,98347.91
2023-02-22T15:59:29.041Z,98354.31
2023-02-22T16:02:42.485Z,98354.13
2023-02-22T16:05:58.249Z,98355.16
2023-02-22T16:09:12.594Z,98362.88
2023-02-22T16:12:30.337Z,98366.97
2023-02-22T16:15:37.533Z,98354.69
2023-02-22T16:18:44.252Z,98367.16
2023-02-22T16:22:03.375Z,98355.53
2023-02-22T16:25:29.163Z,98361.75
2023-02-22T16:28:36.062Z,98355.19
2023-02-22T16:31:43.811Z,98370.75
2023-02-22T16:34:49.701Z,98376.66
2023-02-22T16:38:03.218Z,98365.31
2023-02-22T16:41:10.754Z,98372.81
2023-02-22T16:44:17.724Z,98379.28
2023-02-22T16:47:24.322Z,98380.00
2023-02-22T16:50:30.835Z,98373.88
2023-02-22T16:53:40.951Z,98387.53
2023-02-22T16:56:47.610Z,98381.41
2023-02-22T16:59:55.668Z,98376.72
2023-02-22T17:03:04.033Z,98376.50
2023-02-22T17:06:11.807Z,98379.34
2023-02-22T17:09:22.022Z,98383.72
2023-02-22T17:12:28.660Z,98373.50
2023-02-22T17:15:38.630Z,98379.97
2023-02-22T17:18:46.134Z,98387.75
2023-02-22T17:21:53.843Z,98388.81
2023-02-22T17:25:02.180Z,98394.78
2023-02-22T17:28:10.869Z,98393.44
2023-02-22T17:31:27.206Z,98390.28
2023-02-22T17:34:33.816Z,98395.00
2023-02-22T17:37:40.149Z,98391.63
2023-02-22T17:40:52.087Z,98393.91
2023-02-22T17:43:58.255Z,98396.06
2023-02-22T17:47:04.879Z,98391.75
2023-02-22T17:50:12.592Z,98386.56
2023-02-22T17:53:22.836Z,98396.31
2023-02-22T17:56:31.496Z,98388.81
2023-02-22T17:59:40.649Z,98393.34
2023-02-22T18:02:47.205Z,98397.19
2023-02-22T18:05:57.815Z,98373.31
2023-02-22T18:09:10.894Z,98345.09
2023-02-22T18:12:20.953Z,98399.50
2023-02-22T18:15:28.380Z,98399.13
2023-02-22T18:18:35.779Z,98403.00
2023-02-22T18:21:41.724Z,98401.06
2023-02-22T18:24:48.265Z,98398.78
2023-02-22T18:27:59.386Z,98406.03
2023-02-22T18:31:13.570Z,98399.59
2023-02-22T18:34:19.411Z,98405.06
2023-02-22T18:37:28.340Z,98403.44
2023-02-22T18:40:34.214Z,98409.22
2023-02-22T18:43:44.048Z,98397.56
2023-02-22T18:46:49.797Z,98400.72
2023-02-22T18:49:57.021Z,98403.06
2023-02-22T18:53:05.876Z,98400.59
2023-02-22T18:56:17.048Z,98400.84
2023-02-22T18:59:26.007Z,98400.03
2023-02-22T19:02:32.555Z,98399.06
2023-02-22T19:05:39.116Z,98399.34
2023-02-22T19:08:48.851Z,98394.56
2023-02-22T19:11:54.862Z,98398.41
2023-02-22T19:15:04.992Z,98395.50
2023-02-22T19:18:10.931Z,98383.84
2023-02-22T19:21:18.551Z,98396.19
2023-02-22T19:24:24.567Z,98397.97
2023-02-22T19:27:34.233Z,98393.59
2023-02-22T19:30:42.922Z,98393.44
2023-02-22T19:33:54.050Z,98394.13
2023-02-22T19:37:00.829Z,98394.66
2023-02-22T19:40:11.881Z,98388.47
2023-02-22T19:43:17.646Z,98402.69
2023-02-22T19:46:28.405Z,98391.69
2023-02-22T19:49:35.467Z,98393.09
2023-02-22T19:52:42.234Z,98401.41
2023-02-22T19:55:48.043Z,98403.91
2023-02-22T19:58:54.761Z,98410.59
2023-02-22T20:02:03.267Z,98397.44
2023-02-22T20:05:12.480Z,98404.13
2023-02-22T20:08:22.209Z,98405.81
2023-02-22T20:11:29.672Z,98399.03
2023-02-22T20:14:35.963Z,98407.53
2023-02-22T20:17:50.518Z,98402.19
2023-02-22T20:20:56.671Z,98391.91
2023-02-22T20:24:07.101Z,98402.91
2023-02-22T20:27:13.762Z,98396.75
2023-02-22T20:30:20.657Z,98399.47
2023-02-22T20:33:29.962Z,98394.56
2023-02-22T20:36:39.291Z,98403.34
2023-02-22T20:39:45.543Z,98394.69
2023-02-22T20:42:54.396Z,98404.94
2023-02-22T20:46:04.206Z,98396.44
2023-02-22T20:49:18.472Z,98407.41
2023-02-22T20:52:24.521Z,98409.72
2023-02-22T20:55:31.925Z,98403.25
2023-02-22T20:58:37.895Z,98414.47
2023-02-22T21:01:53.271Z,98405.81
2023-02-22T21:05:02.050Z,98408.28
2023-02-22T21:08:12.602Z,98399.56
2023-02-22T21:11:24.074Z,98412.00
2023-02-22T21:14:32.642Z,98409.34
2023-02-22T21:17:39.010Z,98402.34
2023-02-22T21:20:51.260Z,98391.75
2023-02-22T21:24:02.032Z,98405.09
2023-02-22T21:27:12.475Z,98403.56
2023-02-22T21:30:27.601Z,98398.75
2023-02-22T21:33:34.990Z,98397.13
2023-02-22T21:36:43.460Z,98402.56
2023-02-22T21:39:54.342Z,98398.47
2023-02-22T21:43:04.032Z,98395.97
2023-02-22T21:46:13.689Z,98395.41
2023-02-22T21:49:22.857Z,98391.88
2023-02-22T21:52:32.698Z,98387.72
2023-02-22T21:55:38.886Z,98386.09
2023-02-22T21:58:46.609Z,98381.03
2023-02-22T22:01:56.587Z,98387.44
2023-02-22T22:05:03.380Z,98379.13
2023-02-22T22:08:16.985Z,98380.38
2023-02-22T22:11:25.224Z,98378.19
2023-02-22T22:14:32.416Z,98383.78
2023-02-22T22:17:39.398Z,98378.06
2023-02-22T22:20:45.424Z,98377.00
2023-02-22T22:23:57.547Z,98374.25
2023-02-22T22:27:06.616Z,98363.16
2023-02-22T22:30:17.005Z,98365.09
2023-02-22T22:33:22.986Z,98371.00
2023-02-22T22:36:30.804Z,98373.03
2023-02-22T22:39:41.297Z,98364.53
2023-02-22T22:42:49.437Z,98359.84
2023-02-22T22:45:55.393Z,98375.47
2023-02-22T22:49:01.967Z,98375.91
2023-02-22T22:52:08.287Z,98374.88
2023-02-22T22:55:19.107Z,98381.81
2023-02-22T22:58:25.097Z,98382.72
2023-02-22T23:01:34.622Z,98377.56
2023-02-22T23:04:40.727Z,98377.84
2023-02-22T23:07:47.469Z,98386.97
2023-02-22T23:10:55.809Z,98385.97
2023-02-22T23:14:05.747Z,98380.81
2023-02-22T23:17:15.377Z,98378.25
2023-02-22T23:20:22.846Z,98380.44
2023-02-22T23:23:29.546Z,98385.81
2023-02-22T23:26:39.263Z,98382.31
2023-02-22T23:29:47.450Z,98384.91
2023-02-22T23:32:54.100Z,98388.25
2023-02-22T23:35:59.915Z,98390.03
2023-02-22T23:39:06.726Z,98387.06
2023-02-22T23:42:16.925Z,98395.56
2023-02-22T23:45:26.114Z,98390.97
2023-02-22T23:48:33.998Z,98391.06
2023-02-22T23:51:44.698Z,98390.38
2023-02-22T23:54:53.991Z,98387.06
2023-02-22T23:58:04.390Z,98391.69
